PWSweather.com
Personal Weather Stations
Station Observations
KCAIRVIN1
Rancho San JoaquinUniversity Park, Irvine, CA 92612

Rancho San JoaquinUniversity ParkIrvine, CA 92612

Lat: 33.66, Lon: -117.83

Elevation: 72

Station Type:

http://www.irvineweather.net

Latest ConditionsUpdated 2:35:07 AM PST Wednesday, Feb 22, 2017
Currently Today's Max Today's Min Today's Average
Temperature 57.9°F14.4°C 59.2°F15.1°C 57.9°F14.4°C 58.8°F14.9°C
Dew Point 55.5°F13.1°C 57.4°F14.1°C 55.5°F13.1°C 56.8°F13.8°C
Winds Calm Calm 1.0 mph SW1.6 kmh SW - 0.0 mph 0.0 kmh
Wind Gusts 1.0 mph1.6 kmh 2.0 mph3.2 kmh - -
Humidity 92% 94% 92% 93%
Pressure 30.16 in1021.3 mb 30.21 in1023.0 mb 30.16 in1021.3 mb -
Hour Temp Dew Point Humidity Winds Wind Gusts Pressure Precip Precip Rate Daily Precip Total
02:35 AM 57.9°F14.4°C 55.5°F13.1°C 92% Calm Calm 1.0 mph1.6 kmh 30.16 in1021.3 mb 0.00 in0.0 mm 0.00 in0.0 mm 0.00 in0.0 mm
02:30 AM 58.1°F14.5°C 56.0°F13.3°C 93% Calm Calm -- 30.17 in1021.7 mb 0.00 in0.0 mm 0.00 in0.0 mm 0.00 in0.0 mm
02:25 AM 58.2°F14.6°C 56.1°F13.4°C 93% Calm Calm 1.0 mph1.6 kmh 30.17 in1021.7 mb 0.00 in0.0 mm 0.00 in0.0 mm 0.00 in0.0 mm
02:20 AM 58.2°F14.6°C 56.1°F13.4°C 93% Calm Calm -- 30.17 in1021.7 mb 0.00 in0.0 mm 0.00 in0.0 mm 0.00 in0.0 mm
02:15 AM 58.3°F14.6°C 56.2°F13.4°C 93% Calm Calm 1.0 mph1.6 kmh 30.17 in1021.7 mb 0.00 in0.0 mm 0.00 in0.0 mm 0.00 in0.0 mm
02:10 AM 58.2°F14.6°C 56.1°F13.4°C 93% Calm Calm -- 30.17 in1021.7 mb 0.00 in0.0 mm 0.00 in0.0 mm 0.00 in0.0 mm
02:05 AM 58.3°F14.6°C 56.2°F13.4°C 93% Calm Calm 1.0 mph1.6 kmh 30.17 in1021.7 mb 0.00 in0.0 mm 0.00 in0.0 mm 0.00 in0.0 mm
02:00 AM 58.3°F14.6°C 56.2°F13.4°C 93% Calm Calm -- 30.17 in1021.7 mb 0.00 in0.0 mm 0.00 in0.0 mm 0.00 in0.0 mm
01:55 AM 58.4°F14.7°C 56.3°F13.5°C 93% Calm Calm -- 30.17 in1021.7 mb 0.00 in0.0 mm 0.00 in0.0 mm 0.00 in0.0 mm
01:50 AM 58.4°F14.7°C 56.3°F13.5°C 93% Calm Calm -- 30.17 in1021.7 mb 0.00 in0.0 mm 0.00 in0.0 mm 0.00 in0.0 mm
01:45 AM 58.5°F14.7°C 56.1°F13.4°C 92% Calm Calm 2.0 mph3.2 kmh 30.19 in1022.4 mb 0.00 in0.0 mm 0.00 in0.0 mm 0.00 in0.0 mm
01:40 AM 58.6°F14.8°C 56.5°F13.6°C 93% Calm Calm 2.0 mph3.2 kmh 30.19 in1022.4 mb 0.00 in0.0 mm 0.00 in0.0 mm 0.00 in0.0 mm
01:35 AM 58.7°F14.8°C 56.6°F13.7°C 93% Calm Calm 1.0 mph1.6 kmh 30.19 in1022.4 mb 0.00 in0.0 mm 0.00 in0.0 mm 0.00 in0.0 mm
01:30 AM 58.8°F14.9°C 56.7°F13.7°C 93% Calm Calm -- 30.19 in1022.4 mb 0.00 in0.0 mm 0.00 in0.0 mm 0.00 in0.0 mm
01:25 AM 59.0°F15.0°C 56.9°F13.8°C 93% Calm Calm 2.0 mph3.2 kmh 30.19 in1022.4 mb 0.00 in0.0 mm 0.00 in0.0 mm 0.00 in0.0 mm
01:20 AM 59.1°F15.1°C 57.3°F14.1°C 94% Calm Calm -- 30.19 in1022.4 mb 0.00 in0.0 mm 0.00 in0.0 mm 0.00 in0.0 mm
01:15 AM 59.2°F15.1°C 57.4°F14.1°C 94% Calm Calm 1.0 mph1.6 kmh 30.19 in1022.4 mb 0.00 in0.0 mm 0.00 in0.0 mm 0.00 in0.0 mm
01:10 AM 59.2°F15.1°C 57.4°F14.1°C 94% Calm Calm 2.0 mph3.2 kmh 30.20 in1022.7 mb 0.00 in0.0 mm 0.00 in0.0 mm 0.00 in0.0 mm
01:05 AM 59.2°F15.1°C 57.4°F14.1°C 94% Calm Calm -- 30.19 in1022.4 mb 0.00 in0.0 mm 0.00 in0.0 mm 0.00 in0.0 mm
01:00 AM 59.1°F15.1°C 57.3°F14.1°C 94% Calm Calm -- 30.19 in1022.4 mb 0.00 in0.0 mm 0.00 in0.0 mm 0.00 in0.0 mm
12:55 AM 59.1°F15.1°C 57.3°F14.1°C 94% Calm Calm 1.0 mph1.6 kmh 30.19 in1022.4 mb 0.00 in0.0 mm 0.00 in0.0 mm 0.00 in0.0 mm
12:50 AM 59.2°F15.1°C 57.4°F14.1°C 94% 1.0 mph SW1.6 kmh SW 1.0 mph1.6 kmh 30.20 in1022.7 mb 0.00 in0.0 mm 0.00 in0.0 mm 0.00 in0.0 mm
12:45 AM 59.2°F15.1°C 57.4°F14.1°C 94% Calm Calm -- 30.20 in1022.7 mb 0.00 in0.0 mm 0.00 in0.0 mm 0.00 in0.0 mm
12:40 AM 59.2°F15.1°C 57.4°F14.1°C 94% Calm Calm 1.0 mph1.6 kmh 30.20 in1022.7 mb 0.00 in0.0 mm 0.00 in0.0 mm 0.00 in0.0 mm
12:35 AM 59.1°F15.1°C 57.3°F14.1°C 94% Calm Calm 1.0 mph1.6 kmh 30.21 in1023.0 mb 0.00 in0.0 mm 0.00 in0.0 mm 0.00 in0.0 mm
12:30 AM 59.1°F15.1°C 57.3°F14.1°C 94% Calm Calm -- 30.20 in1022.7 mb 0.00 in0.0 mm 0.00 in0.0 mm 0.00 in0.0 mm
12:25 AM 59.1°F15.1°C 57.0°F13.9°C 93% Calm Calm 1.0 mph1.6 kmh 30.20 in1022.7 mb 0.00 in0.0 mm 0.00 in0.0 mm 0.00 in0.0 mm
12:20 AM 59.1°F15.1°C 57.0°F13.9°C 93% Calm Calm -- 30.20 in1022.7 mb 0.00 in0.0 mm 0.00 in0.0 mm 0.00 in0.0 mm
12:15 AM 59.0°F15.0°C 56.9°F13.8°C 93% Calm Calm 1.0 mph1.6 kmh 30.21 in1023.0 mb 0.00 in0.0 mm 0.00 in0.0 mm 0.00 in0.0 mm
12:10 AM 59.0°F15.0°C 56.9°F13.8°C 93% Calm Calm 1.0 mph1.6 kmh 30.21 in1023.0 mb 0.00 in0.0 mm 0.00 in0.0 mm 0.00 in0.0 mm
12:05 AM 59.0°F15.0°C 56.9°F13.8°C 93% Calm Calm -- 30.21 in1023.0 mb 0.00 in0.0 mm 0.00 in0.0 mm 0.00 in0.0 mm
12:00 AM 59.0°F15.0°C 56.9°F13.8°C 93% Calm Calm 1.0 mph1.6 kmh 30.21 in1023.0 mb 0.00 in0.0 mm 0.00 in0.0 mm 0.00 in0.0 mm